Time;durP1;ratioP1;P1;durP2;ratioP2;P2;SDS_P1;SDS_P2;PMS_P1;PMS_P2;Temp;Humidity;BMP_temperature;BMP_pressure;BME280_temperature;BME280_humidity;BME280_pressure;Samples;Min_cycle;Max_cycle;Signal;HPM_P1;HPM_P2
2022/09/28 00:03:09;;;;;;;42.83;36.95;;;21.60;65.50;;;;;;4448816;58;21045;-34
2022/09/28 00:08:10;;;;;;;43.10;36.78;;;21.60;65.60;;;;;;4445167;58;21080;-33
2022/09/28 00:13:11;;;;;;;42.00;35.55;;;21.60;65.50;;;;;;4505781;58;21100;-28
2022/09/28 00:18:13;;;;;;;43.28;37.05;;;21.70;65.50;;;;;;4446459;58;21060;-37
2022/09/28 00:23:15;;;;;;;41.17;35.88;;;21.60;65.50;;;;;;4439940;62;21103;-30
2022/09/28 00:28:16;;;;;;;39.35;32.92;;;21.60;65.50;;;;;;4439520;62;21073;-33
2022/09/28 00:33:16;;;;;;;40.40;34.60;;;21.60;65.50;;;;;;4445157;58;21109;-29
2022/09/28 00:38:19;;;;;;;40.53;34.70;;;21.60;65.40;;;;;;4445338;58;21093;-36
2022/09/28 00:43:21;;;;;;;41.65;34.97;;;21.60;65.40;;;;;;4505959;58;21068;-29
2022/09/28 00:48:22;;;;;;;40.22;34.65;;;21.60;65.40;;;;;;4450248;59;21539;-26
2022/09/28 00:53:29;;;;;;;38.67;34.22;;;21.60;65.40;;;;;;4459657;59;21048;-31
2022/09/28 00:58:35;;;;;;;39.33;34.10;;;21.60;65.40;;;;;;4444326;59;21052;-34
2022/09/28 01:03:37;;;;;;;38.35;33.63;;;21.60;65.40;;;;;;4443814;59;21569;-32
2022/09/28 01:08:39;;;;;;;38.90;34.25;;;21.60;65.40;;;;;;4487093;59;21632;-35
2022/09/28 01:13:40;;;;;;;37.42;33.13;;;21.60;65.40;;;;;;4464340;59;21601;-26
2022/09/28 01:19:10;;;;;;;38.17;32.50;;;21.60;65.40;;;;;;4442509;59;21085;-31
2022/09/28 01:24:31;;;;;;;39.05;32.60;;;21.60;65.30;;;;;;4446500;59;21080;-34
2022/09/28 01:30:17;;;;;;;37.47;32.95;;;21.60;65.30;;;;;;4459805;59;21052;-34
2022/09/28 01:35:23;;;;;;;37.38;32.17;;;21.60;65.30;;;;;;4464104;59;21111;-37
2022/09/28 01:40:26;;;;;;;36.90;32.90;;;21.60;65.30;;;;;;4444925;59;21522;-27
2022/09/28 01:45:32;;;;;;;37.60;32.25;;;21.60;65.30;;;;;;4452407;59;21173;-32
2022/09/28 01:50:37;;;;;;;35.92;31.10;;;21.60;65.20;;;;;;4441109;59;21173;-33
2022/09/28 01:55:43;;;;;;;35.53;31.62;;;21.60;65.20;;;;;;4494878;59;21099;-37
2022/09/28 02:00:50;;;;;;;36.90;30.95;;;21.60;65.20;;;;;;4459101;59;21068;-28
2022/09/28 02:06:00;;;;;;;33.88;30.15;;;21.60;65.20;;;;;;4475504;59;22029;-35
2022/09/28 02:11:12;;;;;;;34.10;30.40;;;21.60;65.20;;;;;;4459224;59;21236;-29
2022/09/28 02:16:34;;;;;;;36.25;30.27;;;21.60;65.20;;;;;;4458211;59;21040;-26
2022/09/28 02:23:05;;;;;;;34.60;29.30;;;21.60;65.10;;;;;;4443233;59;21060;-27
2022/09/28 02:28:12;;;;;;;32.05;28.35;;;21.60;65.10;;;;;;4449454;59;21119;-30
2022/09/28 02:33:22;;;;;;;36.15;29.75;;;21.60;65.10;;;;;;4461718;59;21564;-26
2022/09/28 02:38:22;;;;;;;33.60;29.02;;;21.60;65.10;;;;;;4462504;59;21063;-31
2022/09/28 02:43:40;;;;;;;31.95;28.45;;;21.60;65.10;;;;;;4471600;59;21549;-32
2022/09/28 02:50:36;;;;;;;34.03;29.73;;;21.60;65.00;;;;;;4441809;59;21184;-37
2022/09/28 02:57:00;;;;;;;31.98;27.45;;;21.60;65.00;;;;;;4471044;59;21088;-30
2022/09/28 03:02:28;;;;;;;29.25;26.05;;;21.60;65.00;;;;;;4449604;59;21176;-30
2022/09/28 03:07:40;;;;;;;31.08;27.35;;;21.60;65.00;;;;;;4455604;59;21610;-37
2022/09/28 03:12:44;;;;;;;30.15;26.67;;;21.60;64.90;;;;;;4451239;59;22413;-33
2022/09/28 03:17:45;;;;;;;31.62;27.15;;;21.60;64.90;;;;;;4450290;59;21123;-34
2022/09/28 03:22:46;;;;;;;31.33;27.85;;;21.60;64.80;;;;;;4449035;59;21120;-32
2022/09/28 03:27:47;;;;;;;30.45;26.60;;;21.60;64.80;;;;;;4440492;63;21071;-35
2022/09/28 03:32:59;;;;;;;28.75;25.65;;;21.50;64.80;;;;;;4442953;58;21498;-26
2022/09/28 03:38:00;;;;;;;28.70;25.60;;;21.60;64.80;;;;;;4458380;59;22344;-29
2022/09/28 03:43:00;;;;;;;27.80;24.52;;;21.60;64.80;;;;;;4440786;58;21096;-29
2022/09/28 03:48:01;;;;;;;27.42;24.55;;;21.50;64.70;;;;;;4446592;59;21104;-35
2022/09/28 03:53:03;;;;;;;27.75;24.70;;;21.60;64.70;;;;;;4439935;62;21040;-34
2022/09/28 03:58:03;;;;;;;27.58;24.48;;;21.50;64.60;;;;;;4440489;63;21107;-34
2022/09/28 04:03:04;;;;;;;25.60;22.90;;;21.50;64.60;;;;;;4440433;62;21121;-31
2022/09/28 04:08:05;;;;;;;27.55;24.48;;;21.50;64.50;;;;;;4442096;58;21044;-28
2022/09/28 04:13:06;;;;;;;26.23;23.15;;;21.50;64.50;;;;;;4456169;58;21538;-33
2022/09/28 04:18:11;;;;;;;26.17;22.92;;;21.50;64.50;;;;;;4450195;58;21546;-27
2022/09/28 04:23:12;;;;;;;26.00;22.75;;;21.50;64.50;;;;;;4460211;59;21087;-35
2022/09/28 04:33:32;;;;;;;24.90;22.37;;;21.50;64.50;;;;;;4457554;59;21172;-35
2022/09/28 04:38:33;;;;;;;24.77;22.13;;;21.50;64.40;;;;;;4445314;58;21562;-32
2022/09/28 04:43:34;;;;;;;24.25;20.85;;;21.50;64.40;;;;;;4443462;58;21179;-35
2022/09/28 04:48:37;;;;;;;23.73;21.23;;;21.50;64.40;;;;;;4438890;62;21121;-28
2022/09/28 04:53:38;;;;;;;21.67;19.37;;;21.50;64.30;;;;;;4446535;58;21097;-33
2022/09/28 04:58:40;;;;;;;22.60;20.20;;;21.50;64.20;;;;;;4446485;58;21606;-27
2022/09/28 05:03:42;;;;;;;22.20;19.80;;;21.50;64.20;;;;;;4458094;59;21132;-33
2022/09/28 05:08:45;;;;;;;22.77;20.08;;;21.50;64.20;;;;;;4471756;59;21127;-27
2022/09/28 05:13:47;;;;;;;23.05;20.02;;;21.50;64.20;;;;;;4476258;58;21611;-34
2022/09/28 05:18:48;;;;;;;22.48;20.05;;;21.50;64.20;;;;;;4440556;58;21530;-35
2022/09/28 05:23:48;;;;;;;21.40;19.20;;;21.50;64.10;;;;;;4440418;59;21068;-35
2022/09/28 05:28:49;;;;;;;20.55;18.40;;;21.50;64.00;;;;;;4439519;62;21056;-29
2022/09/28 05:33:50;;;;;;;22.08;19.08;;;21.50;64.00;;;;;;4460859;58;21554;-30
2022/09/28 05:38:51;;;;;;;20.62;18.45;;;21.50;64.00;;;;;;4472862;58;21068;-29
2022/09/28 05:43:53;;;;;;;21.27;19.02;;;21.50;63.90;;;;;;4506497;58;21650;-32
2022/09/28 05:48:54;;;;;;;26.25;18.58;;;21.50;63.80;;;;;;4439545;63;21529;-34
2022/09/28 05:53:56;;;;;;;22.35;18.92;;;21.60;64.20;;;;;;4463879;58;21103;-28
2022/09/28 05:58:57;;;;;;;22.70;18.52;;;21.60;63.70;;;;;;4483908;59;21048;-34
2022/09/28 06:03:58;;;;;;;22.05;18.62;;;21.60;63.50;;;;;;4440175;62;21569;-35
2022/09/28 06:08:59;;;;;;;21.83;19.02;;;21.70;63.30;;;;;;4440114;62;21060;-31
2022/09/28 06:13:59;;;;;;;21.10;18.50;;;21.60;63.10;;;;;;4447084;58;21076;-31
2022/09/28 06:19:01;;;;;;;23.77;18.87;;;21.60;62.90;;;;;;4441820;58;21048;-31
2022/09/28 06:24:03;;;;;;;23.15;19.17;;;21.60;62.70;;;;;;4443701;58;21590;-35
2022/09/28 06:29:03;;;;;;;22.37;19.67;;;21.60;62.60;;;;;;4440406;59;21087;-32
2022/09/28 06:34:08;;;;;;;23.25;20.17;;;21.60;62.20;;;;;;4451133;58;21072;-30
2022/09/28 06:39:09;;;;;;;25.02;20.42;;;21.60;62.00;;;;;;4441932;58;21503;-28
2022/09/28 06:44:10;;;;;;;22.60;20.17;;;21.70;62.10;;;;;;4447922;58;21057;-28
2022/09/28 06:49:10;;;;;;;24.70;20.98;;;21.70;62.10;;;;;;4459667;58;21084;-28
2022/09/28 06:54:11;;;;;;;26.40;22.75;;;21.70;62.00;;;;;;4447247;58;21068;-28
2022/09/28 06:59:15;;;;;;;28.30;24.25;;;21.70;62.00;;;;;;4466182;58;21148;-28
2022/09/28 07:04:16;;;;;;;27.98;23.85;;;21.70;62.10;;;;;;4447130;58;21545;-33
2022/09/28 07:09:16;;;;;;;28.15;24.60;;;21.70;62.10;;;;;;4440639;58;21096;-33
2022/09/28 07:14:19;;;;;;;32.20;24.73;;;21.70;62.10;;;;;;4452848;58;21116;-31
2022/09/28 07:19:20;;;;;;;29.45;25.35;;;21.70;62.10;;;;;;4441865;58;21549;-29
2022/09/28 07:24:22;;;;;;;31.58;27.27;;;21.80;62.20;;;;;;4440055;62;21594;-31
2022/09/28 07:29:23;;;;;;;30.27;26.55;;;21.80;62.20;;;;;;4442740;58;22485;-32
2022/09/28 07:34:23;;;;;;;31.08;26.12;;;21.80;62.20;;;;;;4439997;62;21064;-34
2022/09/28 07:39:24;;;;;;;34.17;27.25;;;21.80;62.20;;;;;;4446230;58;21064;-35
2022/09/28 07:44:25;;;;;;;33.25;27.52;;;21.80;62.10;;;;;;4466998;58;21148;-29
2022/09/28 07:49:26;;;;;;;32.10;28.40;;;21.90;62.10;;;;;;4448241;58;21570;-28
2022/09/28 07:54:27;;;;;;;32.13;28.00;;;21.90;62.10;;;;;;4458153;58;21064;-28
2022/09/28 07:59:28;;;;;;;34.97;29.23;;;21.90;62.10;;;;;;4450739;58;21056;-29
2022/09/28 08:04:29;;;;;;;34.13;28.08;;;21.90;62.10;;;;;;4459003;58;21586;-34
2022/09/28 08:09:30;;;;;;;29.75;26.42;;;21.90;62.30;;;;;;4501992;58;21578;-34
2022/09/28 08:14:34;;;;;;;34.45;27.10;;;21.90;62.20;;;;;;4444262;58;21012;-29
2022/09/28 08:24:54;;;;;;;35.05;25.85;;;22.00;62.40;;;;;;4441220;59;21156;-28
2022/09/28 08:29:54;;;;;;;32.28;26.27;;;22.10;62.50;;;;;;4439269;62;21069;-28
2022/09/28 08:34:55;;;;;;;30.45;26.35;;;22.10;62.40;;;;;;4471412;58;21099;-28
2022/09/28 08:39:56;;;;;;;30.75;25.77;;;22.10;62.20;;;;;;4496541;58;21040;-27
2022/09/28 08:45:06;;;;;;;34.92;25.92;;;22.20;62.40;;;;;;4457791;58;21561;-30
2022/09/28 08:50:15;;;;;;;34.72;26.52;;;22.20;62.40;;;;;;4440107;59;21534;-26
2022/09/28 08:55:31;;;;;;;40.08;27.00;;;22.20;62.40;;;;;;4444434;59;21586;-31
2022/09/28 09:00:44;;;;;;;38.57;28.37;;;22.20;62.60;;;;;;4442323;59;21024;-34
2022/09/28 09:06:26;;;;;;;46.95;30.12;;;22.20;62.50;;;;;;4459940;59;21118;-28
2022/09/28 09:13:22;;;;;;;45.65;32.13;;;22.20;62.60;;;;;;4440152;63;21490;-31
2022/09/28 09:18:36;;;;;;;41.25;31.08;;;22.30;62.60;;;;;;4441356;59;21176;-29
2022/09/28 09:23:52;;;;;;;43.72;31.52;;;22.30;62.60;;;;;;4466878;59;21156;-31
2022/09/28 09:29:39;;;;;;;39.92;29.70;;;22.30;62.30;;;;;;4444246;59;21112;-28
2022/09/28 09:41:53;;;;;;;38.43;30.67;;;22.30;62.30;;;;;;4457184;59;21109;-28
2022/09/28 09:47:06;;;;;;;39.58;31.45;;;22.20;62.30;;;;;;4441804;59;21164;-28
2022/09/28 09:52:20;;;;;;;36.35;29.85;;;22.20;62.30;;;;;;4440097;63;21625;-32
2022/09/28 09:57:31;;;;;;;37.53;29.42;;;22.20;62.30;;;;;;4468323;59;21157;-29
2022/09/28 10:02:34;;;;;;;40.03;29.70;;;22.20;62.20;;;;;;4440016;59;21085;-28
2022/09/28 10:08:25;;;;;;;40.50;30.98;;;22.30;62.50;;;;;;4456249;59;21092;-32
2022/09/28 10:13:28;;;;;;;37.13;29.50;;;22.30;62.80;;;;;;4440214;59;21594;-29
2022/09/28 10:18:28;;;;;;;36.30;27.80;;;22.30;62.90;;;;;;4439842;63;21512;-27
2022/09/28 10:23:36;;;;;;;38.88;29.30;;;22.30;63.00;;;;;;4445454;58;21055;-32
2022/09/28 10:28:56;;;;;;;36.28;28.75;;;22.30;63.10;;;;;;4461439;59;21133;-28
2022/09/28 10:33:57;;;;;;;40.03;29.92;;;22.30;63.10;;;;;;4440026;63;21097;-29
2022/09/28 10:38:58;;;;;;;36.55;27.62;;;22.40;63.30;;;;;;4460965;58;21044;-28
2022/09/28 10:44:05;;;;;;;37.03;28.35;;;22.40;63.30;;;;;;4477504;58;21048;-29
2022/09/28 10:49:15;;;;;;;39.17;28.10;;;22.40;63.40;;;;;;4453999;59;21207;-27
2022/09/28 10:54:21;;;;;;;33.05;26.23;;;22.40;63.50;;;;;;4460355;59;21105;-33
2022/09/28 10:59:55;;;;;;;35.47;27.77;;;22.50;63.70;;;;;;4440297;63;21132;-33
2022/09/28 11:04:59;;;;;;;38.20;27.98;;;22.50;63.80;;;;;;4439859;63;21565;-29
2022/09/28 11:10:01;;;;;;;37.05;28.08;;;22.50;63.80;;;;;;4441570;59;21622;-29
2022/09/28 11:15:05;;;;;;;35.20;28.00;;;22.50;63.90;;;;;;4439896;58;21586;-34
2022/09/28 11:23:39;;;;;;;33.20;27.17;;;22.50;64.10;;;;;;4444097;59;21224;-31
2022/09/28 11:28:41;;;;;;;35.05;28.15;;;22.50;63.80;;;;;;4452178;58;21535;-32
2022/09/28 11:33:45;;;;;;;36.78;27.15;;;22.40;63.80;;;;;;4442726;58;22119;-35
2022/09/28 11:39:10;;;;;;;34.78;27.45;;;22.40;63.70;;;;;;4450703;59;21164;-34
2022/09/28 11:51:14;;;;;;;35.78;28.27;;;22.40;63.80;;;;;;4442172;59;21521;-33
2022/09/28 11:56:44;;;;;;;47.90;34.72;;;22.40;63.50;;;;;;4446325;59;21096;-28
2022/09/28 12:02:02;;;;;;;48.08;35.85;;;22.40;63.90;;;;;;4457432;59;21040;-34
2022/09/28 12:07:20;;;;;;;59.25;39.90;;;22.40;63.00;;;;;;4451584;59;21117;-31
2022/09/28 12:12:38;;;;;;;59.25;41.10;;;22.40;62.90;;;;;;4455176;59;22547;-31
2022/09/28 12:17:44;;;;;;;53.85;41.67;;;22.40;62.70;;;;;;4439833;63;21057;-34
2022/09/28 12:23:04;;;;;;;59.70;44.13;;;22.50;62.70;;;;;;4442087;59;21077;-35
2022/09/28 12:28:15;;;;;;;67.03;48.03;;;22.50;62.50;;;;;;4439424;63;22472;-29
2022/09/28 12:33:16;;;;;;;75.75;51.33;;;22.50;63.20;;;;;;4440160;63;21045;-26
2022/09/28 12:38:53;;;;;;;74.87;52.08;;;22.50;62.60;;;;;;4457370;59;21052;-28
2022/09/28 12:44:35;;;;;;;81.40;54.95;;;22.50;62.50;;;;;;4452530;59;21174;-30
2022/09/28 12:51:28;;;;;;;73.72;54.47;;;22.50;62.30;;;;;;4448415;59;21133;-30
2022/09/28 12:57:07;;;;;;;78.95;55.05;;;22.50;62.50;;;;;;4470289;59;21060;-29
2022/09/28 13:05:34;;;;;;;76.50;55.25;;;22.50;61.90;;;;;;4443703;59;21104;-35
2022/09/28 13:11:00;;;;;;;81.78;61.20;;;22.50;62.00;;;;;;4448739;59;21169;-34
2022/09/28 13:16:52;;;;;;;104.38;76.35;;;22.50;62.00;;;;;;4478805;59;21069;-30
2022/09/28 13:23:29;;;;;;;117.35;92.18;;;22.60;62.00;;;;;;4449153;59;21052;-33
2022/09/28 13:28:32;;;;;;;121.05;90.70;;;22.60;62.00;;;;;;4462743;59;21530;-29
2022/09/28 13:33:40;;;;;;;125.22;93.18;;;22.60;61.90;;;;;;4465489;59;21101;-30
2022/09/28 13:38:51;;;;;;;120.28;84.70;;;22.60;61.80;;;;;;4471193;59;21056;-30
2022/09/28 13:44:25;;;;;;;109.40;78.93;;;22.60;61.60;;;;;;4439475;63;21622;-31
2022/09/28 13:53:45;;;;;;;103.90;70.90;;;22.60;61.70;;;;;;4448914;59;21215;-30
2022/09/28 14:02:30;;;;;;;97.93;64.00;;;22.60;61.60;;;;;;4443184;59;21024;-28
2022/09/28 14:08:07;;;;;;;89.00;58.72;;;22.60;61.50;;;;;;4448669;59;21079;-28
2022/09/28 14:13:08;;;;;;;85.10;56.40;;;22.50;61.50;;;;;;4440706;63;21194;-30
2022/09/28 14:18:44;;;;;;;72.97;51.63;;;22.50;61.50;;;;;;4451521;59;21091;-31
2022/09/28 14:27:44;;;;;;;82.60;54.03;;;22.50;61.60;;;;;;4462332;59;21101;-38
2022/09/28 14:32:56;;;;;;;83.68;55.60;;;22.50;61.90;;;;;;4447988;59;21080;-28
2022/09/28 14:44:37;;;;;;;77.55;53.53;;;22.40;62.30;;;;;;4439849;59;21143;-35
2022/09/28 14:49:46;;;;;;;73.35;49.55;;;22.40;62.50;;;;;;4442193;59;21558;-28
2022/09/28 14:54:53;;;;;;;70.03;49.03;;;22.30;62.60;;;;;;4480166;59;21526;-37
2022/09/28 14:59:56;;;;;;;65.93;47.78;;;22.30;62.80;;;;;;4440650;63;21586;-28
2022/09/28 15:06:21;;;;;;;68.30;48.38;;;22.30;62.90;;;;;;4456318;59;21175;-37
2022/09/28 15:11:25;;;;;;;64.78;46.72;;;22.20;63.00;;;;;;4466196;59;21156;-37
2022/09/28 15:16:29;;;;;;;60.53;44.97;;;22.20;63.10;;;;;;4440350;63;21106;-40
2022/09/28 15:21:35;;;;;;;61.00;46.15;;;22.20;63.10;;;;;;4440697;59;21057;-32
2022/09/28 15:26:36;;;;;;;61.60;43.40;;;22.20;63.20;;;;;;4486686;59;21084;-28
2022/09/28 15:31:37;;;;;;;58.75;42.72;;;22.20;63.30;;;;;;4447577;59;21583;-34
2022/09/28 15:36:40;;;;;;;63.78;44.00;;;22.10;63.30;;;;;;4440973;58;21108;-32
2022/09/28 15:41:43;;;;;;;57.22;42.17;;;22.10;63.40;;;;;;4472724;59;21136;-36
2022/09/28 15:46:52;;;;;;;56.22;41.40;;;22.10;63.40;;;;;;4441593;59;21221;-30
2022/09/28 15:51:54;;;;;;;54.95;41.47;;;22.10;63.50;;;;;;4442775;59;21539;-35
2022/09/28 15:56:58;;;;;;;54.22;41.70;;;22.10;63.60;;;;;;4439699;63;21156;-31
2022/09/28 16:02:21;;;;;;;57.83;41.40;;;22.10;63.60;;;;;;4479530;59;21554;-35
2022/09/28 16:07:52;;;;;;;52.55;39.90;;;22.00;63.60;;;;;;4450116;59;21586;-33
2022/09/28 16:12:57;;;;;;;52.60;38.83;;;22.00;63.70;;;;;;4443430;59;21083;-33
2022/09/28 16:18:02;;;;;;;52.25;39.85;;;22.00;63.70;;;;;;4456949;59;22112;-29
2022/09/28 16:23:32;;;;;;;53.20;39.35;;;22.00;63.80;;;;;;4450064;59;21148;-27
2022/09/28 16:28:54;;;;;;;52.47;40.67;;;22.00;63.80;;;;;;4445351;59;21493;-36
2022/09/28 16:34:27;;;;;;;50.45;38.20;;;22.00;63.80;;;;;;4460594;58;21040;-31
2022/09/28 16:39:28;;;;;;;47.75;37.40;;;22.00;63.90;;;;;;4440105;63;21565;-27
2022/09/28 16:44:30;;;;;;;46.22;36.90;;;22.00;63.90;;;;;;4447182;58;21057;-27
2022/09/28 16:49:32;;;;;;;47.83;36.22;;;22.00;63.90;;;;;;4467275;58;21573;-30
2022/09/28 16:59:52;;;;;;;45.15;35.92;;;22.00;64.00;;;;;;4439302;63;21107;-36
2022/09/28 17:04:54;;;;;;;45.25;36.10;;;22.00;64.00;;;;;;4449642;59;21671;-37
2022/09/28 17:09:55;;;;;;;44.13;35.08;;;22.00;64.10;;;;;;4464742;58;22080;-37
2022/09/28 17:14:56;;;;;;;45.58;35.97;;;22.00;64.10;;;;;;4439567;62;21096;-37
2022/09/28 17:19:57;;;;;;;43.13;35.22;;;21.90;64.10;;;;;;4443191;59;21072;-36
2022/09/28 17:24:59;;;;;;;46.25;35.80;;;22.00;64.10;;;;;;4446853;59;21577;-34
2022/09/28 17:30:00;;;;;;;41.47;34.20;;;21.90;64.10;;;;;;4448442;59;21209;-27
2022/09/28 17:35:01;;;;;;;45.55;34.50;;;21.90;64.10;;;;;;4451498;59;21582;-33
2022/09/28 17:40:28;;;;;;;42.42;34.88;;;21.90;64.20;;;;;;4443522;59;21249;-30
2022/09/28 17:45:30;;;;;;;;;;;21.90;64.20;;;;;;4446393;59;21119;-33
2022/09/28 17:50:33;;;;;;;39.90;33.58;;;21.90;64.20;;;;;;4440101;63;20070;-31
2022/09/28 17:55:35;;;;;;;42.95;34.65;;;21.90;64.30;;;;;;4440577;63;21044;-30
2022/09/28 18:00:36;;;;;;;42.25;33.28;;;21.90;64.40;;;;;;4458186;59;21530;-31
2022/09/28 18:05:37;;;;;;;43.50;34.40;;;21.90;64.40;;;;;;4441087;58;21064;-28
2022/09/28 18:10:38;;;;;;;40.88;33.60;;;21.90;64.40;;;;;;4462499;58;21049;-30
2022/09/28 18:15:39;;;;;;;41.60;34.03;;;21.90;64.40;;;;;;4458250;59;21088;-33
2022/09/28 18:20:40;;;;;;;39.33;32.78;;;21.90;64.40;;;;;;4440729;59;21056;-29
2022/09/28 18:25:43;;;;;;;40.33;32.58;;;21.90;64.40;;;;;;4482487;58;21610;-30
2022/09/28 18:30:44;;;;;;;41.00;32.33;;;21.90;64.40;;;;;;4439236;63;21168;-28
2022/09/28 18:35:54;;;;;;;40.30;33.63;;;21.90;64.40;;;;;;4477720;59;21064;-32
2022/09/28 18:40:55;;;;;;;43.87;34.78;;;21.90;65.00;;;;;;4445215;58;21060;-30
2022/09/28 18:45:56;;;;;;;40.25;33.88;;;21.90;64.40;;;;;;4484376;58;21653;-31
2022/09/28 18:50:56;;;;;;;43.33;34.95;;;21.90;64.40;;;;;;4447464;58;21105;-28
2022/09/28 18:55:57;;;;;;;42.30;33.72;;;21.90;64.40;;;;;;4441437;58;21049;-34
2022/09/28 19:00:58;;;;;;;39.47;32.72;;;21.90;64.50;;;;;;4439780;62;21534;-27
2022/09/28 19:05:59;;;;;;;40.88;33.72;;;21.90;64.50;;;;;;4490074;58;21044;-35
2022/09/28 19:11:14;;;;;;;42.42;34.28;;;21.90;64.60;;;;;;4461298;59;21048;-31
2022/09/28 19:16:17;;;;;;;40.17;33.25;;;21.90;64.50;;;;;;4441592;59;21116;-30
2022/09/28 19:21:19;;;;;;;42.13;33.30;;;21.90;64.50;;;;;;4469767;59;21052;-31
2022/09/28 19:26:26;;;;;;;40.92;33.30;;;21.90;64.60;;;;;;4440350;59;21041;-30
2022/09/28 19:31:28;;;;;;;37.38;31.73;;;21.90;64.60;;;;;;4485871;59;21068;-28
2022/09/28 19:36:29;;;;;;;38.10;32.85;;;21.90;65.30;;;;;;4469079;59;21553;-30
2022/09/28 19:41:39;;;;;;;36.97;32.10;;;21.90;64.60;;;;;;4444002;58;21051;-31
2022/09/28 19:46:41;;;;;;;40.72;32.83;;;21.90;64.60;;;;;;4453262;59;21569;-29
2022/09/28 19:51:42;;;;;;;40.08;33.17;;;21.80;64.70;;;;;;4468502;59;21024;-28
2022/09/28 19:56:44;;;;;;;41.20;33.22;;;21.90;64.70;;;;;;4439902;62;21080;-32
2022/09/28 20:01:44;;;;;;;39.08;31.98;;;21.80;64.70;;;;;;4443753;58;21113;-31
2022/09/28 20:06:45;;;;;;;38.75;32.53;;;21.80;64.70;;;;;;4445351;58;21056;-27
2022/09/28 20:11:47;;;;;;;40.53;33.30;;;21.90;65.40;;;;;;4463609;58;21084;-31
2022/09/28 20:16:48;;;;;;;37.45;30.70;;;21.80;64.70;;;;;;4465944;58;21549;-27
2022/09/28 20:21:49;;;;;;;38.78;33.05;;;21.80;64.70;;;;;;4443213;58;21574;-27
2022/09/28 20:26:50;;;;;;;38.25;32.10;;;21.80;64.70;;;;;;4450069;59;21531;-31
2022/09/28 20:31:51;;;;;;;37.17;31.27;;;21.80;64.70;;;;;;4451982;58;21048;-31
2022/09/28 20:36:52;;;;;;;37.67;32.05;;;21.80;64.70;;;;;;4440523;62;21063;-26
2022/09/28 20:41:53;;;;;;;38.30;31.75;;;21.80;64.70;;;;;;4466990;58;21534;-31
2022/09/28 20:46:55;;;;;;;39.33;32.08;;;21.80;64.80;;;;;;4439834;58;21625;-30
2022/09/28 20:51:55;;;;;;;38.80;31.42;;;21.80;64.80;;;;;;4459304;58;21510;-26
2022/09/28 20:56:56;;;;;;;37.50;31.35;;;21.80;64.80;;;;;;4443845;58;21056;-31
2022/09/28 21:01:57;;;;;;;36.30;30.67;;;21.80;64.80;;;;;;4440211;59;21545;-27
2022/09/28 21:06:58;;;;;;;36.38;31.30;;;21.80;64.70;;;;;;4505397;58;21503;-29
2022/09/28 21:11:59;;;;;;;38.25;31.55;;;21.80;64.70;;;;;;4450614;58;21080;-31
2022/09/28 21:16:59;;;;;;;36.50;29.80;;;21.80;64.80;;;;;;4459125;59;21593;-34
2022/09/28 21:22:00;;;;;;;35.78;29.73;;;21.80;64.80;;;;;;4510538;58;21040;-37
2022/09/28 21:27:01;;;;;;;35.08;29.45;;;21.80;64.70;;;;;;4476286;58;21155;-32
2022/09/28 21:32:02;;;;;;;38.80;30.12;;;21.80;65.40;;;;;;4442459;59;21072;-30
2022/09/28 21:37:03;;;;;;;35.35;29.52;;;21.80;64.80;;;;;;4468788;58;21048;-27
2022/09/28 21:42:03;;;;;;;34.67;29.17;;;21.80;64.70;;;;;;4464673;58;21152;-30
2022/09/28 21:47:04;;;;;;;35.25;29.80;;;21.80;64.80;;;;;;4455761;58;21084;-30
2022/09/28 21:52:05;;;;;;;35.00;29.83;;;21.80;64.80;;;;;;4462726;58;21068;-31
2022/09/28 21:57:07;;;;;;;31.48;28.08;;;21.80;64.80;;;;;;4461801;59;21137;-29
2022/09/28 22:02:09;;;;;;;33.38;28.70;;;21.80;64.80;;;;;;4491314;58;21894;-31
2022/09/28 22:07:10;;;;;;;34.15;27.80;;;21.80;64.70;;;;;;4439875;59;21610;-32
2022/09/28 22:12:11;;;;;;;33.08;28.38;;;21.80;64.80;;;;;;4447090;58;21068;-31
2022/09/28 22:17:11;;;;;;;32.92;27.25;;;21.80;64.70;;;;;;4440841;62;21080;-29
2022/09/28 22:22:12;;;;;;;31.60;26.85;;;21.80;64.70;;;;;;4466647;58;21051;-28
2022/09/28 22:27:14;;;;;;;33.80;28.00;;;21.80;64.70;;;;;;4458733;58;21072;-31
2022/09/28 22:32:15;;;;;;;31.92;27.62;;;21.80;64.70;;;;;;4440222;63;21599;-27
2022/09/28 22:37:16;;;;;;;30.95;26.77;;;21.80;64.70;;;;;;4453891;58;21047;-35
2022/09/28 22:42:16;;;;;;;34.92;27.83;;;21.80;64.70;;;;;;4448792;58;21096;-30
2022/09/28 22:47:17;;;;;;;30.73;26.15;;;21.80;64.70;;;;;;4448003;59;21164;-36
2022/09/28 22:52:18;;;;;;;30.02;26.10;;;21.80;64.70;;;;;;4471327;58;21048;-31
2022/09/28 22:57:19;;;;;;;31.75;26.80;;;21.80;64.70;;;;;;4442347;58;21060;-34
2022/09/28 23:02:20;;;;;;;30.65;26.20;;;21.80;64.70;;;;;;4474163;58;21064;-29
2022/09/28 23:07:20;;;;;;;28.30;24.73;;;21.80;64.70;;;;;;4442431;59;21076;-27
2022/09/28 23:12:21;;;;;;;30.70;26.15;;;21.80;64.80;;;;;;4443417;58;21049;-28
2022/09/28 23:17:22;;;;;;;28.62;24.40;;;21.80;64.70;;;;;;4440257;63;21204;-31
2022/09/28 23:22:23;;;;;;;30.52;25.50;;;21.80;64.70;;;;;;4439860;62;21124;-32
2022/09/28 23:27:23;;;;;;;28.75;24.63;;;21.80;64.70;;;;;;4461369;58;21057;-29
2022/09/28 23:32:25;;;;;;;28.40;24.63;;;21.80;65.30;;;;;;4453543;58;21093;-35
2022/09/28 23:37:25;;;;;;;30.88;25.40;;;21.80;64.70;;;;;;4454590;58;21534;-32
2022/09/28 23:42:26;;;;;;;28.20;24.08;;;21.80;64.70;;;;;;4450367;58;21081;-34
2022/09/28 23:47:27;;;;;;;29.65;24.20;;;21.80;64.70;;;;;;4440405;58;21081;-31
2022/09/28 23:52:28;;;;;;;26.90;23.87;;;21.70;64.60;;;;;;4480430;58;21093;-31
2022/09/28 23:57:28;;;;;;;27.00;22.48;;;21.70;64.60;;;;;;4450008;58;21048;-28
